Araucaria, Brazil
Current Conditions -  °F | °C
As of 5:00 AM on Monday 20 Oct 2014 (Local Time) from SBCT Reporting Station
Haze Haze  
Wind Chill: 61°   Ceiling: 400
Heat Index: 61°   Visibility: 3mi
Dew Point: 59°   Wind: 7mph
Humidity: 94%   Direction: 140°SE
Pressure: 30.03"   Gusts: NA
Location:  25.58°S, 49.4°W
Report Text: SBCT 200800Z 14006KT 5000 BR OVC004 16/15 Q1017
Loading
Personal Weather Stations






























Interactive Weather Map New forecast layout! Learn more

10-Day Weather Forecast

Advertisements
Track Severe Weather on mobile